<?xml version="1.0" encoding="UTF-8" standalone="no" ?>
<gpx xmlns="http://www.topografix.com/GPX/1/1" xmlns:xsi="http://www.w3.org/2001/XMLSchema-instance" xsi:schemaLocation="http://www.topografix.com/GPX/1/1 http://www.topografix.com/GPX/1/1/gpx.xsd" version="1.1" creator="VisuGPX - https://www.visugpx.com">
  <metadata>
    <name>Sortie VTT Chartreuse</name>
    <desc><![CDATA[Essai]]></desc>
  </metadata>
  <trk>
    <name><![CDATA[Sortie VTT Chartreuse_4]]></name>
    <trkseg>
      <trkpt lat="45.38302" lon="5.79329">
        <ele>1392</ele>
        <time>2008-10-25T08:32:00Z</time>
      </trkpt>
      <trkpt lat="45.38302" lon="5.79331">
        <ele>1392</ele>
        <time>2008-10-25T08:32:02Z</time>
      </trkpt>
      <trkpt lat="45.38319" lon="5.79355">
        <ele>1387</ele>
        <time>2008-10-25T08:32:20Z</time>
      </trkpt>
      <trkpt lat="45.38326" lon="5.79372">
        <ele>1388</ele>
        <time>2008-10-25T08:32:42Z</time>
      </trkpt>
      <trkpt lat="45.38336" lon="5.79374">
        <ele>1393</ele>
        <time>2008-10-25T08:32:55Z</time>
      </trkpt>
      <trkpt lat="45.38347" lon="5.79381">
        <ele>1394</ele>
        <time>2008-10-25T08:33:16Z</time>
      </trkpt>
      <trkpt lat="45.38351" lon="5.79389">
        <ele>1393</ele>
        <time>2008-10-25T08:33:23Z</time>
      </trkpt>
      <trkpt lat="45.38362" lon="5.79415">
        <ele>1392</ele>
        <time>2008-10-25T08:33:47Z</time>
      </trkpt>
      <trkpt lat="45.38364" lon="5.79441">
        <ele>1392</ele>
        <time>2008-10-25T08:34:04Z</time>
      </trkpt>
      <trkpt lat="45.38366" lon="5.79464">
        <ele>1391</ele>
        <time>2008-10-25T08:34:16Z</time>
      </trkpt>
      <trkpt lat="45.38375" lon="5.79475">
        <ele>1391</ele>
        <time>2008-10-25T08:34:25Z</time>
      </trkpt>
      <trkpt lat="45.38409" lon="5.79516">
        <ele>1391</ele>
        <time>2008-10-25T08:34:56Z</time>
      </trkpt>
      <trkpt lat="45.38435" lon="5.79557">
        <ele>1386</ele>
        <time>2008-10-25T08:35:13Z</time>
      </trkpt>
      <trkpt lat="45.38454" lon="5.79585">
        <ele>1383</ele>
        <time>2008-10-25T08:35:38Z</time>
      </trkpt>
      <trkpt lat="45.38469" lon="5.79598">
        <ele>1383</ele>
        <time>2008-10-25T08:35:54Z</time>
      </trkpt>
      <trkpt lat="45.38495" lon="5.79621">
        <ele>1384</ele>
        <time>2008-10-25T08:36:28Z</time>
      </trkpt>
      <trkpt lat="45.38519" lon="5.79634">
        <ele>1386</ele>
        <time>2008-10-25T08:36:54Z</time>
      </trkpt>
      <trkpt lat="45.38523" lon="5.79651">
        <ele>1389</ele>
        <time>2008-10-25T08:37:06Z</time>
      </trkpt>
      <trkpt lat="45.38525" lon="5.79662">
        <ele>1390</ele>
        <time>2008-10-25T08:37:27Z</time>
      </trkpt>
      <trkpt lat="45.38529" lon="5.79662">
        <ele>1391</ele>
        <time>2008-10-25T08:37:35Z</time>
      </trkpt>
      <trkpt lat="45.38534" lon="5.7966">
        <ele>1395</ele>
        <time>2008-10-25T08:37:58Z</time>
      </trkpt>
      <trkpt lat="45.38534" lon="5.7966">
        <ele>1396</ele>
        <time>2008-10-25T08:38:38Z</time>
      </trkpt>
      <trkpt lat="45.38551" lon="5.79662">
        <ele>1400</ele>
        <time>2008-10-25T08:39:01Z</time>
      </trkpt>
      <trkpt lat="45.38572" lon="5.79666">
        <ele>1406</ele>
        <time>2008-10-25T08:39:40Z</time>
      </trkpt>
      <trkpt lat="45.38577" lon="5.79677">
        <ele>1408</ele>
        <time>2008-10-25T08:39:59Z</time>
      </trkpt>
      <trkpt lat="45.38585" lon="5.79698">
        <ele>1410</ele>
        <time>2008-10-25T08:40:20Z</time>
      </trkpt>
      <trkpt lat="45.38602" lon="5.79733">
        <ele>1416</ele>
        <time>2008-10-25T08:40:51Z</time>
      </trkpt>
      <trkpt lat="45.38622" lon="5.79763">
        <ele>1421</ele>
        <time>2008-10-25T08:41:18Z</time>
      </trkpt>
      <trkpt lat="45.38626" lon="5.79767">
        <ele>1422</ele>
        <time>2008-10-25T08:41:24Z</time>
      </trkpt>
      <trkpt lat="45.38628" lon="5.79769">
        <ele>1423</ele>
        <time>2008-10-25T08:41:29Z</time>
      </trkpt>
      <trkpt lat="45.38635" lon="5.79784">
        <ele>1421</ele>
        <time>2008-10-25T08:41:46Z</time>
      </trkpt>
      <trkpt lat="45.38635" lon="5.79793">
        <ele>1422</ele>
        <time>2008-10-25T08:41:51Z</time>
      </trkpt>
      <trkpt lat="45.38637" lon="5.79804">
        <ele>1424</ele>
        <time>2008-10-25T08:42:09Z</time>
      </trkpt>
    </trkseg>
  </trk>
</gpx>